sensor_id;sensor_type;location;lat;lon;timestamp;P1;durP1;ratioP1;P2;durP2;ratioP2
46713;SDS011;32445;51.376;10.874;2022-12-18T00:01:41;58.23;;;30.67;;
46713;SDS011;32445;51.376;10.874;2022-12-18T00:04:41;54.90;;;29.17;;
46713;SDS011;32445;51.376;10.874;2022-12-18T00:07:42;45.73;;;27.83;;
46713;SDS011;32445;51.376;10.874;2022-12-18T00:10:42;44.87;;;25.53;;
46713;SDS011;32445;51.376;10.874;2022-12-18T00:13:43;28.37;;;21.13;;
46713;SDS011;32445;51.376;10.874;2022-12-18T00:16:44;25.07;;;21.40;;
46713;SDS011;32445;51.376;10.874;2022-12-18T00:19:46;27.48;;;20.63;;
46713;SDS011;32445;51.376;10.874;2022-12-18T00:22:46;29.70;;;19.43;;
46713;SDS011;32445;51.376;10.874;2022-12-18T00:25:46;21.83;;;17.33;;
46713;SDS011;32445;51.376;10.874;2022-12-18T00:28:47;25.70;;;19.83;;
46713;SDS011;32445;51.376;10.874;2022-12-18T00:31:48;28.83;;;18.47;;
46713;SDS011;32445;51.376;10.874;2022-12-18T00:34:48;21.17;;;18.97;;
46713;SDS011;32445;51.376;10.874;2022-12-18T00:37:49;26.17;;;19.00;;
46713;SDS011;32445;51.376;10.874;2022-12-18T00:40:49;27.77;;;19.73;;
46713;SDS011;32445;51.376;10.874;2022-12-18T00:43:50;25.17;;;18.13;;
46713;SDS011;32445;51.376;10.874;2022-12-18T00:46:50;24.50;;;19.90;;
46713;SDS011;32445;51.376;10.874;2022-12-18T00:49:50;24.87;;;19.13;;
46713;SDS011;32445;51.376;10.874;2022-12-18T00:52:51;20.93;;;16.90;;
46713;SDS011;32445;51.376;10.874;2022-12-18T00:55:52;17.50;;;15.67;;
46713;SDS011;32445;51.376;10.874;2022-12-18T00:58:52;23.80;;;17.60;;
46713;SDS011;32445;51.376;10.874;2022-12-18T01:01:52;16.70;;;15.00;;
46713;SDS011;32445;51.376;10.874;2022-12-18T01:04:53;17.87;;;16.07;;
46713;SDS011;32445;51.376;10.874;2022-12-18T01:07:53;15.83;;;14.37;;
46713;SDS011;32445;51.376;10.874;2022-12-18T01:10:54;18.67;;;15.90;;
46713;SDS011;32445;51.376;10.874;2022-12-18T01:13:55;17.60;;;14.67;;
46713;SDS011;32445;51.376;10.874;2022-12-18T01:16:55;17.27;;;15.60;;
46713;SDS011;32445;51.376;10.874;2022-12-18T01:19:55;14.20;;;12.80;;
46713;SDS011;32445;51.376;10.874;2022-12-18T01:22:56;15.87;;;14.43;;
46713;SDS011;32445;51.376;10.874;2022-12-18T01:25:56;16.33;;;14.57;;
46713;SDS011;32445;51.376;10.874;2022-12-18T01:28:56;15.37;;;13.83;;
46713;SDS011;32445;51.376;10.874;2022-12-18T01:31:57;16.73;;;14.77;;
46713;SDS011;32445;51.376;10.874;2022-12-18T01:34:58;15.43;;;13.93;;
46713;SDS011;32445;51.376;10.874;2022-12-18T01:37:58;15.87;;;14.43;;
46713;SDS011;32445;51.376;10.874;2022-12-18T01:40:59;16.60;;;14.70;;
46713;SDS011;32445;51.376;10.874;2022-12-18T01:44:00;17.10;;;14.97;;
46713;SDS011;32445;51.376;10.874;2022-12-18T01:47:00;17.17;;;14.53;;
46713;SDS011;32445;51.376;10.874;2022-12-18T01:50:23;17.43;;;14.40;;
46713;SDS011;32445;51.376;10.874;2022-12-18T01:53:30;21.07;;;16.37;;
46713;SDS011;32445;51.376;10.874;2022-12-18T01:56:30;23.00;;;19.17;;
46713;SDS011;32445;51.376;10.874;2022-12-18T01:59:31;22.60;;;16.73;;
46713;SDS011;32445;51.376;10.874;2022-12-18T02:02:33;28.50;;;19.33;;
46713;SDS011;32445;51.376;10.874;2022-12-18T02:15:01;21.17;;;18.77;;
46713;SDS011;32445;51.376;10.874;2022-12-18T02:18:08;23.23;;;19.20;;
46713;SDS011;32445;51.376;10.874;2022-12-18T02:27:58;27.13;;;20.83;;
46713;SDS011;32445;51.376;10.874;2022-12-18T02:31:02;25.17;;;22.50;;
46713;SDS011;32445;51.376;10.874;2022-12-18T02:34:06;31.67;;;24.00;;
46713;SDS011;32445;51.376;10.874;2022-12-18T02:37:10;28.10;;;23.77;;
46713;SDS011;32445;51.376;10.874;2022-12-18T02:40:15;30.67;;;22.77;;
46713;SDS011;32445;51.376;10.874;2022-12-18T02:43:18;34.87;;;25.90;;
46713;SDS011;32445;51.376;10.874;2022-12-18T02:46:25;33.73;;;23.67;;
46713;SDS011;32445;51.376;10.874;2022-12-18T02:53:17;30.13;;;22.40;;
46713;SDS011;32445;51.376;10.874;2022-12-18T02:56:28;34.50;;;25.40;;
46713;SDS011;32445;51.376;10.874;2022-12-18T02:59:34;37.17;;;22.93;;
46713;SDS011;32445;51.376;10.874;2022-12-18T03:06:06;47.87;;;28.83;;
46713;SDS011;32445;51.376;10.874;2022-12-18T03:09:12;41.33;;;26.80;;
46713;SDS011;32445;51.376;10.874;2022-12-18T03:15:24;40.57;;;25.90;;
46713;SDS011;32445;51.376;10.874;2022-12-18T03:18:45;42.70;;;27.37;;
46713;SDS011;32445;51.376;10.874;2022-12-18T03:21:51;40.40;;;24.93;;
46713;SDS011;32445;51.376;10.874;2022-12-18T03:24:54;38.70;;;25.80;;
46713;SDS011;32445;51.376;10.874;2022-12-18T03:27:58;38.47;;;24.30;;
46713;SDS011;32445;51.376;10.874;2022-12-18T03:31:01;39.90;;;26.77;;
46713;SDS011;32445;51.376;10.874;2022-12-18T03:34:06;40.17;;;26.00;;
46713;SDS011;32445;51.376;10.874;2022-12-18T03:37:13;41.17;;;24.10;;
46713;SDS011;32445;51.376;10.874;2022-12-18T03:40:13;36.87;;;24.27;;
46713;SDS011;32445;51.376;10.874;2022-12-18T03:43:16;39.87;;;24.30;;
46713;SDS011;32445;51.376;10.874;2022-12-18T03:46:25;37.63;;;24.70;;
46713;SDS011;32445;51.376;10.874;2022-12-18T03:52:58;40.43;;;24.50;;
46713;SDS011;32445;51.376;10.874;2022-12-18T03:56:06;34.30;;;25.37;;
46713;SDS011;32445;51.376;10.874;2022-12-18T03:59:09;36.70;;;22.47;;
46713;SDS011;32445;51.376;10.874;2022-12-18T04:02:11;36.03;;;23.80;;
46713;SDS011;32445;51.376;10.874;2022-12-18T04:05:12;36.20;;;25.70;;
46713;SDS011;32445;51.376;10.874;2022-12-18T04:08:14;38.93;;;24.30;;
46713;SDS011;32445;51.376;10.874;2022-12-18T04:11:15;41.83;;;25.20;;
46713;SDS011;32445;51.376;10.874;2022-12-18T04:14:15;30.23;;;22.50;;
46713;SDS011;32445;51.376;10.874;2022-12-18T04:17:16;33.37;;;24.33;;
46713;SDS011;32445;51.376;10.874;2022-12-18T04:20:17;31.13;;;22.00;;
46713;SDS011;32445;51.376;10.874;2022-12-18T04:23:17;37.47;;;23.80;;
46713;SDS011;32445;51.376;10.874;2022-12-18T04:26:18;28.70;;;23.50;;
46713;SDS011;32445;51.376;10.874;2022-12-18T04:29:18;39.60;;;27.43;;
46713;SDS011;32445;51.376;10.874;2022-12-18T04:32:18;32.80;;;23.30;;
46713;SDS011;32445;51.376;10.874;2022-12-18T04:35:19;26.87;;;23.37;;
46713;SDS011;32445;51.376;10.874;2022-12-18T04:38:19;32.10;;;23.00;;
46713;SDS011;32445;51.376;10.874;2022-12-18T04:41:19;34.10;;;24.03;;
46713;SDS011;32445;51.376;10.874;2022-12-18T04:44:20;28.63;;;24.33;;
46713;SDS011;32445;51.376;10.874;2022-12-18T04:47:20;32.20;;;24.60;;
46713;SDS011;32445;51.376;10.874;2022-12-18T04:50:20;29.97;;;22.63;;
46713;SDS011;32445;51.376;10.874;2022-12-18T04:53:21;29.97;;;24.23;;
46713;SDS011;32445;51.376;10.874;2022-12-18T04:56:21;35.20;;;23.13;;
46713;SDS011;32445;51.376;10.874;2022-12-18T04:59:22;34.23;;;24.07;;
46713;SDS011;32445;51.376;10.874;2022-12-18T05:02:22;31.40;;;23.60;;
46713;SDS011;32445;51.376;10.874;2022-12-18T05:05:22;32.40;;;21.53;;
46713;SDS011;32445;51.376;10.874;2022-12-18T05:08:23;25.70;;;22.87;;
46713;SDS011;32445;51.376;10.874;2022-12-18T05:11:23;36.53;;;24.77;;
46713;SDS011;32445;51.376;10.874;2022-12-18T05:14:23;27.47;;;21.20;;
46713;SDS011;32445;51.376;10.874;2022-12-18T05:17:24;32.93;;;24.47;;
46713;SDS011;32445;51.376;10.874;2022-12-18T05:20:24;28.70;;;21.67;;
46713;SDS011;32445;51.376;10.874;2022-12-18T05:23:25;32.23;;;24.17;;
46713;SDS011;32445;51.376;10.874;2022-12-18T05:26:25;29.93;;;23.63;;
46713;SDS011;32445;51.376;10.874;2022-12-18T05:29:26;32.27;;;23.17;;
46713;SDS011;32445;51.376;10.874;2022-12-18T05:32:26;36.87;;;23.87;;
46713;SDS011;32445;51.376;10.874;2022-12-18T05:35:27;35.57;;;23.17;;
46713;SDS011;32445;51.376;10.874;2022-12-18T05:38:28;30.47;;;21.83;;
46713;SDS011;32445;51.376;10.874;2022-12-18T05:41:29;41.97;;;23.80;;
46713;SDS011;32445;51.376;10.874;2022-12-18T05:44:29;31.73;;;21.87;;
46713;SDS011;32445;51.376;10.874;2022-12-18T05:47:30;27.30;;;23.30;;
46713;SDS011;32445;51.376;10.874;2022-12-18T05:50:30;34.40;;;22.87;;
46713;SDS011;32445;51.376;10.874;2022-12-18T05:53:33;32.33;;;20.97;;
46713;SDS011;32445;51.376;10.874;2022-12-18T05:56:34;27.17;;;23.02;;
46713;SDS011;32445;51.376;10.874;2022-12-18T05:59:35;30.00;;;21.87;;
46713;SDS011;32445;51.376;10.874;2022-12-18T06:02:35;29.80;;;22.87;;
46713;SDS011;32445;51.376;10.874;2022-12-18T06:05:36;27.20;;;20.50;;
46713;SDS011;32445;51.376;10.874;2022-12-18T06:08:42;29.37;;;22.60;;
46713;SDS011;32445;51.376;10.874;2022-12-18T06:11:42;29.60;;;22.47;;
46713;SDS011;32445;51.376;10.874;2022-12-18T06:14:43;35.53;;;26.47;;
46713;SDS011;32445;51.376;10.874;2022-12-18T06:17:43;27.10;;;23.13;;
46713;SDS011;32445;51.376;10.874;2022-12-18T06:20:44;33.87;;;23.70;;
46713;SDS011;32445;51.376;10.874;2022-12-18T06:23:44;26.40;;;22.53;;
46713;SDS011;32445;51.376;10.874;2022-12-18T06:26:44;30.37;;;23.47;;
46713;SDS011;32445;51.376;10.874;2022-12-18T06:29:45;32.20;;;24.30;;
46713;SDS011;32445;51.376;10.874;2022-12-18T06:32:45;25.10;;;21.13;;
46713;SDS011;32445;51.376;10.874;2022-12-18T06:35:46;30.33;;;22.73;;
46713;SDS011;32445;51.376;10.874;2022-12-18T06:38:46;30.47;;;22.20;;
46713;SDS011;32445;51.376;10.874;2022-12-18T06:41:47;35.87;;;24.43;;
46713;SDS011;32445;51.376;10.874;2022-12-18T06:44:47;36.50;;;25.37;;
46713;SDS011;32445;51.376;10.874;2022-12-18T06:47:47;34.57;;;23.13;;
46713;SDS011;32445;51.376;10.874;2022-12-18T06:50:47;33.73;;;23.13;;
46713;SDS011;32445;51.376;10.874;2022-12-18T06:53:48;30.13;;;24.40;;
46713;SDS011;32445;51.376;10.874;2022-12-18T06:56:49;27.17;;;22.60;;
46713;SDS011;32445;51.376;10.874;2022-12-18T06:59:49;38.17;;;23.30;;
46713;SDS011;32445;51.376;10.874;2022-12-18T07:02:50;36.17;;;22.97;;
46713;SDS011;32445;51.376;10.874;2022-12-18T07:05:50;31.23;;;22.90;;
46713;SDS011;32445;51.376;10.874;2022-12-18T07:08:51;29.80;;;22.83;;
46713;SDS011;32445;51.376;10.874;2022-12-18T07:11:53;30.43;;;22.30;;
46713;SDS011;32445;51.376;10.874;2022-12-18T07:14:53;26.17;;;21.70;;
46713;SDS011;32445;51.376;10.874;2022-12-18T07:17:53;28.23;;;23.63;;
46713;SDS011;32445;51.376;10.874;2022-12-18T07:20:54;27.03;;;22.13;;
46713;SDS011;32445;51.376;10.874;2022-12-18T07:23:54;26.47;;;22.77;;
46713;SDS011;32445;51.376;10.874;2022-12-18T07:26:54;28.80;;;20.80;;
46713;SDS011;32445;51.376;10.874;2022-12-18T07:29:55;27.33;;;21.70;;
46713;SDS011;32445;51.376;10.874;2022-12-18T07:32:55;27.33;;;21.50;;
46713;SDS011;32445;51.376;10.874;2022-12-18T07:35:55;27.07;;;22.20;;
46713;SDS011;32445;51.376;10.874;2022-12-18T07:38:56;27.00;;;22.93;;
46713;SDS011;32445;51.376;10.874;2022-12-18T07:41:56;29.53;;;23.70;;
46713;SDS011;32445;51.376;10.874;2022-12-18T07:45:15;29.23;;;21.63;;
46713;SDS011;32445;51.376;10.874;2022-12-18T07:48:15;25.43;;;22.23;;
46713;SDS011;32445;51.376;10.874;2022-12-18T07:51:16;24.20;;;21.40;;
46713;SDS011;32445;51.376;10.874;2022-12-18T07:54:17;30.43;;;24.17;;
46713;SDS011;32445;51.376;10.874;2022-12-18T07:57:17;31.20;;;24.17;;
46713;SDS011;32445;51.376;10.874;2022-12-18T08:00:18;30.80;;;23.30;;
46713;SDS011;32445;51.376;10.874;2022-12-18T08:03:18;34.70;;;25.73;;
46713;SDS011;32445;51.376;10.874;2022-12-18T08:06:19;33.27;;;25.57;;
46713;SDS011;32445;51.376;10.874;2022-12-18T08:09:20;34.07;;;25.20;;
46713;SDS011;32445;51.376;10.874;2022-12-18T08:12:20;30.87;;;25.50;;
46713;SDS011;32445;51.376;10.874;2022-12-18T08:15:20;40.37;;;29.77;;
46713;SDS011;32445;51.376;10.874;2022-12-18T08:18:20;45.37;;;32.07;;
46713;SDS011;32445;51.376;10.874;2022-12-18T08:21:22;37.80;;;27.17;;
46713;SDS011;32445;51.376;10.874;2022-12-18T08:24:24;52.47;;;34.10;;
46713;SDS011;32445;51.376;10.874;2022-12-18T08:27:25;40.83;;;27.30;;
46713;SDS011;32445;51.376;10.874;2022-12-18T08:30:25;35.83;;;26.53;;
46713;SDS011;32445;51.376;10.874;2022-12-18T08:33:26;41.83;;;28.37;;
46713;SDS011;32445;51.376;10.874;2022-12-18T08:36:26;40.67;;;27.90;;
46713;SDS011;32445;51.376;10.874;2022-12-18T08:39:27;37.33;;;30.00;;
46713;SDS011;32445;51.376;10.874;2022-12-18T08:42:27;42.20;;;28.03;;
46713;SDS011;32445;51.376;10.874;2022-12-18T08:46:06;41.83;;;27.77;;
46713;SDS011;32445;51.376;10.874;2022-12-18T08:49:06;41.10;;;29.10;;
46713;SDS011;32445;51.376;10.874;2022-12-18T08:52:07;36.13;;;29.00;;
46713;SDS011;32445;51.376;10.874;2022-12-18T08:55:09;49.33;;;29.00;;
46713;SDS011;32445;51.376;10.874;2022-12-18T08:58:09;40.70;;;29.27;;
46713;SDS011;32445;51.376;10.874;2022-12-18T09:01:11;39.47;;;28.20;;
46713;SDS011;32445;51.376;10.874;2022-12-18T09:04:12;52.53;;;31.05;;
46713;SDS011;32445;51.376;10.874;2022-12-18T09:07:13;35.00;;;28.17;;
46713;SDS011;32445;51.376;10.874;2022-12-18T09:10:14;42.40;;;29.20;;
46713;SDS011;32445;51.376;10.874;2022-12-18T09:13:14;46.73;;;33.77;;
46713;SDS011;32445;51.376;10.874;2022-12-18T09:16:16;46.00;;;32.03;;
46713;SDS011;32445;51.376;10.874;2022-12-18T09:19:16;57.23;;;37.13;;
46713;SDS011;32445;51.376;10.874;2022-12-18T09:22:16;51.87;;;33.50;;
46713;SDS011;32445;51.376;10.874;2022-12-18T09:25:17;56.23;;;36.70;;
46713;SDS011;32445;51.376;10.874;2022-12-18T09:28:17;52.17;;;36.20;;
46713;SDS011;32445;51.376;10.874;2022-12-18T09:31:19;51.00;;;36.37;;
46713;SDS011;32445;51.376;10.874;2022-12-18T09:34:21;49.47;;;34.40;;
46713;SDS011;32445;51.376;10.874;2022-12-18T09:37:21;40.10;;;30.17;;
46713;SDS011;32445;51.376;10.874;2022-12-18T09:40:23;39.77;;;29.53;;
46713;SDS011;32445;51.376;10.874;2022-12-18T09:43:26;43.47;;;29.63;;
46713;SDS011;32445;51.376;10.874;2022-12-18T09:46:34;39.33;;;28.27;;
46713;SDS011;32445;51.376;10.874;2022-12-18T09:49:40;38.53;;;27.13;;
46713;SDS011;32445;51.376;10.874;2022-12-18T09:52:44;37.33;;;27.90;;
46713;SDS011;32445;51.376;10.874;2022-12-18T09:55:48;36.33;;;27.10;;
46713;SDS011;32445;51.376;10.874;2022-12-18T09:59:01;34.57;;;27.67;;
46713;SDS011;32445;51.376;10.874;2022-12-18T10:09:10;39.33;;;29.17;;
46713;SDS011;32445;51.376;10.874;2022-12-18T10:12:22;47.83;;;30.97;;
46713;SDS011;32445;51.376;10.874;2022-12-18T10:19:01;44.63;;;30.80;;
46713;SDS011;32445;51.376;10.874;2022-12-18T10:22:53;40.97;;;30.77;;
46713;SDS011;32445;51.376;10.874;2022-12-18T10:26:05;51.77;;;32.53;;
46713;SDS011;32445;51.376;10.874;2022-12-18T10:29:10;45.77;;;30.60;;
46713;SDS011;32445;51.376;10.874;2022-12-18T10:32:14;37.27;;;26.33;;
46713;SDS011;32445;51.376;10.874;2022-12-18T10:38:27;33.67;;;23.30;;
46713;SDS011;32445;51.376;10.874;2022-12-18T10:41:28;29.13;;;23.93;;
46713;SDS011;32445;51.376;10.874;2022-12-18T10:44:30;28.25;;;23.75;;
46713;SDS011;32445;51.376;10.874;2022-12-18T10:47:31;42.77;;;26.20;;
46713;SDS011;32445;51.376;10.874;2022-12-18T10:50:34;34.90;;;26.10;;
46713;SDS011;32445;51.376;10.874;2022-12-18T10:53:37;33.80;;;23.90;;
46713;SDS011;32445;51.376;10.874;2022-12-18T10:56:40;36.70;;;25.93;;
46713;SDS011;32445;51.376;10.874;2022-12-18T10:59:55;33.83;;;25.83;;
46713;SDS011;32445;51.376;10.874;2022-12-18T11:02:58;37.80;;;24.77;;
46713;SDS011;32445;51.376;10.874;2022-12-18T11:06:06;30.13;;;24.07;;
46713;SDS011;32445;51.376;10.874;2022-12-18T11:09:19;29.83;;;23.17;;
46713;SDS011;32445;51.376;10.874;2022-12-18T11:12:22;34.03;;;24.63;;
46713;SDS011;32445;51.376;10.874;2022-12-18T11:15:26;32.03;;;23.33;;
46713;SDS011;32445;51.376;10.874;2022-12-18T11:18:30;35.63;;;24.30;;
46713;SDS011;32445;51.376;10.874;2022-12-18T11:21:38;33.17;;;24.00;;
46713;SDS011;32445;51.376;10.874;2022-12-18T11:24:40;31.47;;;24.67;;
46713;SDS011;32445;51.376;10.874;2022-12-18T11:27:40;28.93;;;22.93;;
46713;SDS011;32445;51.376;10.874;2022-12-18T11:30:47;35.47;;;24.63;;
46713;SDS011;32445;51.376;10.874;2022-12-18T11:33:50;33.55;;;23.65;;
46713;SDS011;32445;51.376;10.874;2022-12-18T11:37:13;33.07;;;23.10;;
46713;SDS011;32445;51.376;10.874;2022-12-18T11:40:24;33.33;;;24.83;;
46713;SDS011;32445;51.376;10.874;2022-12-18T11:43:47;29.37;;;21.93;;
46713;SDS011;32445;51.376;10.874;2022-12-18T11:47:03;31.57;;;24.07;;
46713;SDS011;32445;51.376;10.874;2022-12-18T11:50:18;28.80;;;22.97;;
46713;SDS011;32445;51.376;10.874;2022-12-18T11:53:24;32.27;;;22.03;;
46713;SDS011;32445;51.376;10.874;2022-12-18T12:06:30;34.93;;;24.63;;
46713;SDS011;32445;51.376;10.874;2022-12-18T12:19:41;34.17;;;25.17;;
46713;SDS011;32445;51.376;10.874;2022-12-18T12:29:00;36.53;;;25.08;;
46713;SDS011;32445;51.376;10.874;2022-12-18T12:35:23;29.25;;;22.95;;
46713;SDS011;32445;51.376;10.874;2022-12-18T12:38:42;32.05;;;25.27;;
46713;SDS011;32445;51.376;10.874;2022-12-18T12:41:46;32.92;;;24.20;;
46713;SDS011;32445;51.376;10.874;2022-12-18T12:45:06;34.65;;;24.58;;
46713;SDS011;32445;51.376;10.874;2022-12-18T12:48:20;27.35;;;21.73;;
46713;SDS011;32445;51.376;10.874;2022-12-18T12:51:40;31.85;;;24.33;;
46713;SDS011;32445;51.376;10.874;2022-12-18T12:54:43;30.83;;;22.70;;
46713;SDS011;32445;51.376;10.874;2022-12-18T12:57:51;33.63;;;23.88;;
46713;SDS011;32445;51.376;10.874;2022-12-18T13:01:14;33.75;;;24.67;;
46713;SDS011;32445;51.376;10.874;2022-12-18T13:04:42;29.95;;;22.63;;
46713;SDS011;32445;51.376;10.874;2022-12-18T13:07:51;26.75;;;20.58;;
46713;SDS011;32445;51.376;10.874;2022-12-18T13:10:56;25.58;;;19.65;;
46713;SDS011;32445;51.376;10.874;2022-12-18T13:14:20;28.27;;;20.77;;
46713;SDS011;32445;51.376;10.874;2022-12-18T13:17:30;26.17;;;21.42;;
46713;SDS011;32445;51.376;10.874;2022-12-18T13:20:40;32.80;;;23.88;;
46713;SDS011;32445;51.376;10.874;2022-12-18T13:23:42;29.95;;;22.98;;
46713;SDS011;32445;51.376;10.874;2022-12-18T13:26:43;35.20;;;24.70;;
46713;SDS011;32445;51.376;10.874;2022-12-18T13:29:44;32.03;;;23.15;;
46713;SDS011;32445;51.376;10.874;2022-12-18T13:32:45;32.60;;;21.40;;
46713;SDS011;32445;51.376;10.874;2022-12-18T13:38:46;29.23;;;22.70;;
46713;SDS011;32445;51.376;10.874;2022-12-18T13:41:50;28.80;;;20.98;;
46713;SDS011;32445;51.376;10.874;2022-12-18T13:44:53;30.67;;;22.73;;
46713;SDS011;32445;51.376;10.874;2022-12-18T13:47:53;31.85;;;22.85;;
46713;SDS011;32445;51.376;10.874;2022-12-18T13:51:02;30.63;;;23.58;;
46713;SDS011;32445;51.376;10.874;2022-12-18T13:57:28;27.45;;;22.23;;
46713;SDS011;32445;51.376;10.874;2022-12-18T14:00:30;30.02;;;21.20;;
46713;SDS011;32445;51.376;10.874;2022-12-18T14:03:31;28.83;;;22.57;;
46713;SDS011;32445;51.376;10.874;2022-12-18T14:06:32;33.10;;;22.25;;
46713;SDS011;32445;51.376;10.874;2022-12-18T14:10:14;29.58;;;23.40;;
46713;SDS011;32445;51.376;10.874;2022-12-18T14:12:57;30.85;;;23.23;;
46713;SDS011;32445;51.376;10.874;2022-12-18T14:16:05;34.50;;;20.55;;
46713;SDS011;32445;51.376;10.874;2022-12-18T14:19:12;27.67;;;21.30;;
46713;SDS011;32445;51.376;10.874;2022-12-18T14:22:19;30.10;;;22.02;;
46713;SDS011;32445;51.376;10.874;2022-12-18T14:25:28;24.98;;;20.05;;
46713;SDS011;32445;51.376;10.874;2022-12-18T14:28:29;25.40;;;20.25;;
46713;SDS011;32445;51.376;10.874;2022-12-18T14:31:30;26.83;;;21.10;;
46713;SDS011;32445;51.376;10.874;2022-12-18T14:34:31;27.57;;;20.00;;
46713;SDS011;32445;51.376;10.874;2022-12-18T14:37:31;28.23;;;21.70;;
46713;SDS011;32445;51.376;10.874;2022-12-18T14:40:32;27.75;;;22.00;;
46713;SDS011;32445;51.376;10.874;2022-12-18T14:43:33;28.63;;;21.30;;
46713;SDS011;32445;51.376;10.874;2022-12-18T14:46:35;31.45;;;22.67;;
46713;SDS011;32445;51.376;10.874;2022-12-18T14:49:38;24.90;;;20.65;;
46713;SDS011;32445;51.376;10.874;2022-12-18T14:52:42;24.92;;;20.48;;
46713;SDS011;32445;51.376;10.874;2022-12-18T14:55:45;24.73;;;19.65;;
46713;SDS011;32445;51.376;10.874;2022-12-18T14:58:48;24.50;;;20.10;;
46713;SDS011;32445;51.376;10.874;2022-12-18T15:08:29;20.23;;;17.55;;
46713;SDS011;32445;51.376;10.874;2022-12-18T15:14:41;23.20;;;19.50;;
46713;SDS011;32445;51.376;10.874;2022-12-18T15:17:41;23.00;;;18.60;;
46713;SDS011;32445;51.376;10.874;2022-12-18T15:20:43;21.23;;;18.27;;
46713;SDS011;32445;51.376;10.874;2022-12-18T15:23:51;19.92;;;17.92;;
46713;SDS011;32445;51.376;10.874;2022-12-18T15:26:52;26.03;;;19.03;;
46713;SDS011;32445;51.376;10.874;2022-12-18T15:30:10;25.75;;;20.48;;
46713;SDS011;32445;51.376;10.874;2022-12-18T15:33:29;28.95;;;21.25;;
46713;SDS011;32445;51.376;10.874;2022-12-18T15:36:31;24.52;;;21.73;;
46713;SDS011;32445;51.376;10.874;2022-12-18T15:39:31;43.00;;;30.10;;
46713;SDS011;32445;51.376;10.874;2022-12-18T15:42:32;30.20;;;25.45;;
46713;SDS011;32445;51.376;10.874;2022-12-18T15:45:51;26.00;;;22.17;;
46713;SDS011;32445;51.376;10.874;2022-12-18T15:48:54;23.60;;;20.33;;
46713;SDS011;32445;51.376;10.874;2022-12-18T15:51:57;24.67;;;20.95;;
46713;SDS011;32445;51.376;10.874;2022-12-18T15:54:59;28.08;;;21.58;;
46713;SDS011;32445;51.376;10.874;2022-12-18T15:58:18;31.43;;;21.27;;
46713;SDS011;32445;51.376;10.874;2022-12-18T16:01:20;30.27;;;22.48;;
46713;SDS011;32445;51.376;10.874;2022-12-18T16:04:22;33.47;;;23.03;;
46713;SDS011;32445;51.376;10.874;2022-12-18T16:07:23;29.83;;;23.70;;
46713;SDS011;32445;51.376;10.874;2022-12-18T16:10:24;30.05;;;24.83;;
46713;SDS011;32445;51.376;10.874;2022-12-18T16:13:26;28.52;;;22.70;;
46713;SDS011;32445;51.376;10.874;2022-12-18T16:16:26;29.27;;;21.80;;
46713;SDS011;32445;51.376;10.874;2022-12-18T16:19:27;26.85;;;23.23;;
46713;SDS011;32445;51.376;10.874;2022-12-18T16:22:29;28.20;;;21.93;;
46713;SDS011;32445;51.376;10.874;2022-12-18T16:25:30;27.83;;;21.27;;
46713;SDS011;32445;51.376;10.874;2022-12-18T16:28:30;24.90;;;21.60;;
46713;SDS011;32445;51.376;10.874;2022-12-18T16:31:31;27.37;;;22.70;;
46713;SDS011;32445;51.376;10.874;2022-12-18T16:34:32;29.63;;;21.50;;
46713;SDS011;32445;51.376;10.874;2022-12-18T16:37:34;30.27;;;23.40;;
46713;SDS011;32445;51.376;10.874;2022-12-18T16:40:34;30.93;;;22.53;;
46713;SDS011;32445;51.376;10.874;2022-12-18T16:43:54;32.77;;;23.60;;
46713;SDS011;32445;51.376;10.874;2022-12-18T16:46:55;29.13;;;22.90;;
46713;SDS011;32445;51.376;10.874;2022-12-18T16:50:01;31.57;;;22.53;;
46713;SDS011;32445;51.376;10.874;2022-12-18T16:53:01;31.00;;;22.43;;
46713;SDS011;32445;51.376;10.874;2022-12-18T16:56:02;27.50;;;22.47;;
46713;SDS011;32445;51.376;10.874;2022-12-18T16:59:02;34.73;;;24.93;;
46713;SDS011;32445;51.376;10.874;2022-12-18T17:02:03;32.67;;;22.63;;
46713;SDS011;32445;51.376;10.874;2022-12-18T17:05:04;29.77;;;22.57;;
46713;SDS011;32445;51.376;10.874;2022-12-18T17:08:04;23.57;;;20.10;;
46713;SDS011;32445;51.376;10.874;2022-12-18T17:11:08;26.73;;;20.87;;
46713;SDS011;32445;51.376;10.874;2022-12-18T17:14:09;26.37;;;21.87;;
46713;SDS011;32445;51.376;10.874;2022-12-18T17:17:14;24.83;;;22.00;;
46713;SDS011;32445;51.376;10.874;2022-12-18T17:20:15;26.00;;;20.30;;
46713;SDS011;32445;51.376;10.874;2022-12-18T17:23:15;31.00;;;23.03;;
46713;SDS011;32445;51.376;10.874;2022-12-18T17:26:15;26.03;;;20.37;;
46713;SDS011;32445;51.376;10.874;2022-12-18T17:29:17;30.20;;;22.63;;
46713;SDS011;32445;51.376;10.874;2022-12-18T17:32:18;45.40;;;23.67;;
46713;SDS011;32445;51.376;10.874;2022-12-18T17:35:19;31.13;;;20.63;;
46713;SDS011;32445;51.376;10.874;2022-12-18T17:38:19;28.70;;;22.77;;
46713;SDS011;32445;51.376;10.874;2022-12-18T17:41:20;32.00;;;22.43;;
46713;SDS011;32445;51.376;10.874;2022-12-18T17:44:21;26.60;;;20.97;;
46713;SDS011;32445;51.376;10.874;2022-12-18T17:47:22;26.43;;;22.07;;
46713;SDS011;32445;51.376;10.874;2022-12-18T17:50:22;27.37;;;21.30;;
46713;SDS011;32445;51.376;10.874;2022-12-18T17:53:22;25.43;;;20.60;;
46713;SDS011;32445;51.376;10.874;2022-12-18T17:56:23;32.73;;;20.90;;
46713;SDS011;32445;51.376;10.874;2022-12-18T17:59:23;30.13;;;22.27;;
46713;SDS011;32445;51.376;10.874;2022-12-18T18:02:24;26.17;;;22.43;;
46713;SDS011;32445;51.376;10.874;2022-12-18T18:05:24;31.33;;;21.10;;
46713;SDS011;32445;51.376;10.874;2022-12-18T18:08:25;32.17;;;23.93;;
46713;SDS011;32445;51.376;10.874;2022-12-18T18:11:26;24.80;;;21.57;;
46713;SDS011;32445;51.376;10.874;2022-12-18T18:14:45;29.67;;;22.30;;
46713;SDS011;32445;51.376;10.874;2022-12-18T18:17:45;27.57;;;22.13;;
46713;SDS011;32445;51.376;10.874;2022-12-18T18:20:45;26.07;;;20.43;;
46713;SDS011;32445;51.376;10.874;2022-12-18T18:23:46;27.77;;;21.97;;
46713;SDS011;32445;51.376;10.874;2022-12-18T18:26:46;26.30;;;21.77;;
46713;SDS011;32445;51.376;10.874;2022-12-18T18:29:46;33.97;;;26.00;;
46713;SDS011;32445;51.376;10.874;2022-12-18T18:32:47;29.23;;;24.13;;
46713;SDS011;32445;51.376;10.874;2022-12-18T18:35:47;26.17;;;22.43;;
46713;SDS011;32445;51.376;10.874;2022-12-18T18:38:48;26.47;;;22.17;;
46713;SDS011;32445;51.376;10.874;2022-12-18T18:41:49;31.43;;;21.87;;
46713;SDS011;32445;51.376;10.874;2022-12-18T18:44:49;27.97;;;23.27;;
46713;SDS011;32445;51.376;10.874;2022-12-18T18:47:50;35.00;;;26.00;;
46713;SDS011;32445;51.376;10.874;2022-12-18T18:50:57;29.00;;;23.23;;
46713;SDS011;32445;51.376;10.874;2022-12-18T18:54:00;32.30;;;24.83;;
46713;SDS011;32445;51.376;10.874;2022-12-18T18:57:00;31.60;;;24.08;;
46713;SDS011;32445;51.376;10.874;2022-12-18T19:00:00;29.83;;;21.57;;
46713;SDS011;32445;51.376;10.874;2022-12-18T19:03:01;36.50;;;25.00;;
46713;SDS011;32445;51.376;10.874;2022-12-18T19:06:02;31.57;;;22.37;;